createdAt,value
2022-12-16T00:01:16.728Z,100925.97
2022-12-16T00:03:49.322Z,100961.47
2022-12-16T00:06:20.169Z,100947.44
2022-12-16T00:08:47.978Z,100908.13
2022-12-16T00:11:15.967Z,100845.84
2022-12-16T00:13:44.164Z,100830.44
2022-12-16T00:16:15.432Z,100823.25
2022-12-16T00:18:43.546Z,100795.28
2022-12-16T00:21:12.272Z,100797.84
2022-12-16T00:23:41.704Z,100781.81
2022-12-16T00:26:10.249Z,100786.72
2022-12-16T00:28:38.246Z,100791.44
2022-12-16T00:31:06.475Z,100772.16
2022-12-16T00:33:36.189Z,100759.31
2022-12-16T00:36:04.363Z,100759.25
2022-12-16T00:38:32.114Z,100754.69
2022-12-16T00:41:00.099Z,100748.75
2022-12-16T00:43:27.801Z,100750.44
2022-12-16T00:45:55.563Z,100751.78
2022-12-16T00:48:23.966Z,100748.88
2022-12-16T00:50:55.395Z,100752.22
2022-12-16T00:53:24.219Z,100738.53
2022-12-16T00:55:52.358Z,100722.13
2022-12-16T00:58:21.479Z,100725.81
2022-12-16T01:00:49.232Z,100725.75
2022-12-16T01:03:21.590Z,100737.19
2022-12-16T01:05:50.453Z,100743.50
2022-12-16T01:08:20.029Z,100745.28
2022-12-16T01:10:51.962Z,100733.28
2022-12-16T01:13:21.282Z,100736.44
2022-12-16T01:15:49.177Z,100735.38
2022-12-16T01:18:20.011Z,100743.19
2022-12-16T01:20:47.786Z,100742.75
2022-12-16T01:23:15.499Z,100746.53
2022-12-16T01:25:44.882Z,100759.84
2022-12-16T01:28:12.589Z,100763.81
2022-12-16T01:30:40.335Z,100767.69
2022-12-16T01:33:08.044Z,100769.03
2022-12-16T01:35:55.207Z,100767.25
2022-12-16T01:38:23.853Z,100775.63
2022-12-16T01:40:52.941Z,100774.16
2022-12-16T01:43:26.492Z,100775.56
2022-12-16T01:45:58.105Z,100771.78
2022-12-16T01:48:36.957Z,100779.94
2022-12-16T01:51:09.146Z,100778.19
2022-12-16T01:53:39.917Z,100775.69
2022-12-16T01:56:09.709Z,100780.09
2022-12-16T01:58:40.560Z,100782.19
2022-12-16T02:01:09.148Z,100776.91
2022-12-16T02:03:38.509Z,100783.00
2022-12-16T02:06:08.081Z,100785.16
2022-12-16T02:08:36.416Z,100794.59
2022-12-16T02:11:37.653Z,100791.50
2022-12-16T02:14:34.160Z,100792.00
2022-12-16T02:17:10.584Z,100803.66
2022-12-16T02:20:15.009Z,100805.28
2022-12-16T02:23:00.265Z,100793.88
2022-12-16T02:25:48.384Z,100794.19
2022-12-16T02:28:33.588Z,100796.72
2022-12-16T02:33:48.516Z,100802.59
2022-12-16T02:36:26.051Z,100788.69
2022-12-16T02:39:00.163Z,100790.88
2022-12-16T02:41:39.004Z,100791.94
2022-12-16T02:44:09.401Z,100785.38
2022-12-16T02:46:41.881Z,100776.00
2022-12-16T02:49:44.629Z,100766.72
2022-12-16T02:52:13.748Z,100766.44
2022-12-16T02:54:42.046Z,100772.81
2022-12-16T02:57:23.903Z,100783.91
2022-12-16T03:00:03.452Z,100762.75
2022-12-16T03:02:39.355Z,100765.34
2022-12-16T03:05:15.666Z,100770.31
2022-12-16T03:07:46.073Z,100766.41
2022-12-16T03:10:18.527Z,100769.88
2022-12-16T03:12:47.199Z,100775.53
2022-12-16T03:15:20.058Z,100775.25
2022-12-16T03:17:49.919Z,100778.50
2022-12-16T03:20:24.079Z,100775.53
2022-12-16T03:22:53.311Z,100780.97
2022-12-16T03:25:22.500Z,100781.66
2022-12-16T03:27:58.519Z,100780.72
2022-12-16T03:30:29.688Z,100780.13
2022-12-16T03:33:03.069Z,100779.94
2022-12-16T03:35:38.082Z,100777.25
2022-12-16T03:38:09.140Z,100788.91
2022-12-16T03:40:39.516Z,100782.66
2022-12-16T03:43:09.050Z,100773.47
2022-12-16T03:45:39.091Z,100776.66
2022-12-16T03:48:08.917Z,100782.78
2022-12-16T03:50:39.410Z,100776.25
2022-12-16T03:53:08.494Z,100780.88
2022-12-16T03:55:36.359Z,100783.41
2022-12-16T03:58:04.292Z,100790.69
2022-12-16T04:00:32.732Z,100791.38
2022-12-16T04:03:00.877Z,100786.22
2022-12-16T04:05:29.118Z,100793.19
2022-12-16T04:08:01.832Z,100790.16
2022-12-16T04:10:47.667Z,100796.88
2022-12-16T04:13:33.428Z,100801.56
2022-12-16T04:16:19.583Z,100790.53
2022-12-16T04:19:06.108Z,100786.09
2022-12-16T04:21:51.452Z,100793.75
2022-12-16T04:24:30.045Z,100790.09
2022-12-16T04:27:16.098Z,100789.72
2022-12-16T04:29:58.010Z,100796.16
2022-12-16T04:32:25.860Z,100792.31
2022-12-16T04:34:52.908Z,100798.50
2022-12-16T04:37:38.344Z,100799.44
2022-12-16T04:40:26.335Z,100804.25
2022-12-16T04:43:11.716Z,100799.19
2022-12-16T04:45:57.614Z,100808.25
2022-12-16T04:48:51.082Z,100807.72
2022-12-16T04:51:36.362Z,100814.22
2022-12-16T04:54:21.714Z,100806.41
2022-12-16T04:57:08.369Z,100810.28
2022-12-16T04:59:53.663Z,100804.16
2022-12-16T05:02:39.049Z,100814.69
2022-12-16T05:05:25.151Z,100817.66
2022-12-16T05:08:10.478Z,100819.50
2022-12-16T05:10:55.750Z,100817.81
2022-12-16T05:13:42.415Z,100819.75
2022-12-16T05:16:27.829Z,100824.88
2022-12-16T05:19:14.011Z,100824.69
2022-12-16T05:21:59.224Z,100826.72
2022-12-16T05:24:47.330Z,100827.31
2022-12-16T05:27:36.330Z,100836.22
2022-12-16T05:30:23.358Z,100848.22
2022-12-16T05:33:08.664Z,100849.22
2022-12-16T05:36:05.454Z,100845.13
2022-12-16T05:38:50.823Z,100845.13
2022-12-16T05:41:36.160Z,100857.78
2022-12-16T05:44:21.458Z,100864.16
2022-12-16T05:47:08.156Z,100879.50
2022-12-16T05:49:53.247Z,100876.75
2022-12-16T05:52:39.120Z,100870.19
2022-12-16T05:55:27.896Z,100869.41
2022-12-16T05:58:17.319Z,100894.97
2022-12-16T06:01:17.117Z,100891.47
2022-12-16T06:04:17.755Z,100875.78
2022-12-16T06:07:03.232Z,100874.09
2022-12-16T06:09:53.139Z,100871.63
2022-12-16T06:12:41.531Z,100873.69
2022-12-16T06:15:27.699Z,100868.06
2022-12-16T06:18:13.163Z,100877.50
2022-12-16T06:21:08.277Z,100873.59
2022-12-16T06:23:53.626Z,100890.22
2022-12-16T06:26:39.036Z,100889.22
2022-12-16T06:29:24.316Z,100901.50
2022-12-16T06:32:09.630Z,100907.13
2022-12-16T06:34:54.777Z,100921.84
2022-12-16T06:37:41.422Z,100936.19
2022-12-16T06:40:28.096Z,100936.28
2022-12-16T06:43:13.452Z,100944.63
2022-12-16T06:45:58.899Z,100931.75
2022-12-16T06:48:43.980Z,100929.63
2022-12-16T06:51:29.438Z,100955.88
2022-12-16T06:54:16.040Z,100938.34
2022-12-16T06:57:01.229Z,100929.31
2022-12-16T06:59:46.453Z,100935.34
2022-12-16T07:02:31.858Z,100933.84
2022-12-16T07:05:17.236Z,100941.91
2022-12-16T07:08:06.475Z,100941.47
2022-12-16T07:10:53.014Z,100934.59
2022-12-16T07:13:40.742Z,100939.84
2022-12-16T07:16:26.038Z,100943.22
2022-12-16T07:19:11.136Z,100939.31
2022-12-16T07:21:56.624Z,100942.47
2022-12-16T07:24:41.866Z,100944.69
2022-12-16T07:27:28.533Z,100952.16
2022-12-16T07:30:13.831Z,100954.97
2022-12-16T07:32:59.165Z,100957.50
2022-12-16T07:35:44.649Z,100958.97
2022-12-16T07:38:29.940Z,100969.31
2022-12-16T07:41:15.263Z,100960.19
2022-12-16T07:44:01.787Z,100968.91
2022-12-16T07:46:47.298Z,100976.97
2022-12-16T07:49:32.716Z,100975.72
2022-12-16T07:52:17.964Z,100982.56
2022-12-16T07:55:03.194Z,100981.84
2022-12-16T07:57:48.380Z,100984.97
2022-12-16T08:00:35.394Z,100992.16
2022-12-16T08:03:20.779Z,101002.44
2022-12-16T08:06:07.347Z,100997.09
2022-12-16T08:08:52.632Z,100996.75
2022-12-16T08:11:37.857Z,101001.03
2022-12-16T08:14:25.426Z,100997.69
2022-12-16T08:17:12.308Z,101006.31
2022-12-16T08:19:57.463Z,101012.59
2022-12-16T08:22:42.863Z,101013.97
2022-12-16T08:25:28.285Z,101018.78
2022-12-16T08:28:13.688Z,101021.53
2022-12-16T08:30:58.920Z,101030.06
2022-12-16T08:33:45.779Z,101027.31
2022-12-16T08:36:31.136Z,101043.09
2022-12-16T08:39:16.610Z,101035.19
2022-12-16T08:42:01.857Z,101037.50
2022-12-16T08:44:47.259Z,101040.38
2022-12-16T08:47:32.514Z,101049.06
2022-12-16T08:50:19.287Z,101052.22
2022-12-16T08:53:04.602Z,101054.94
2022-12-16T08:55:50.053Z,101067.66
2022-12-16T08:58:35.302Z,101068.31
2022-12-16T09:01:20.827Z,101071.28
2022-12-16T09:04:06.269Z,101084.44
2022-12-16T09:06:52.697Z,101089.38
2022-12-16T09:09:37.889Z,101094.22
2022-12-16T09:12:23.271Z,101100.88
2022-12-16T09:15:08.748Z,101101.78
2022-12-16T09:17:54.010Z,101104.34
2022-12-16T09:20:39.261Z,101115.19
2022-12-16T09:23:25.915Z,101133.53
2022-12-16T09:26:11.381Z,101135.97
2022-12-16T09:28:56.457Z,101137.09
2022-12-16T09:31:41.822Z,101141.00
2022-12-16T09:34:26.943Z,101148.13
2022-12-16T09:37:12.327Z,101160.06
2022-12-16T09:39:58.885Z,101154.28
2022-12-16T09:42:55.376Z,101165.22
2022-12-16T09:45:50.778Z,101180.78
2022-12-16T09:48:43.033Z,101179.09
2022-12-16T09:51:29.826Z,101201.00
2022-12-16T09:54:16.129Z,101230.28
2022-12-16T09:57:04.159Z,101234.59
2022-12-16T09:59:53.404Z,101246.84
2022-12-16T10:02:39.554Z,101266.84
2022-12-16T10:05:30.181Z,101269.78
2022-12-16T10:08:23.076Z,101273.97
2022-12-16T10:11:17.628Z,101283.13
2022-12-16T10:14:15.990Z,101264.59
2022-12-16T10:17:10.951Z,101251.94
2022-12-16T10:20:12.282Z,101240.16
2022-12-16T10:23:04.155Z,101263.31
2022-12-16T10:25:57.924Z,101268.53
2022-12-16T10:28:56.884Z,101249.22
2022-12-16T10:31:40.380Z,101267.38
2022-12-16T10:34:32.287Z,101272.00
2022-12-16T10:37:21.123Z,101270.97
2022-12-16T10:40:09.284Z,101287.50
2022-12-16T10:42:59.168Z,101253.94
2022-12-16T10:45:47.461Z,101275.22
2022-12-16T10:48:41.053Z,101278.97
2022-12-16T10:51:32.988Z,101285.97
2022-12-16T10:54:29.479Z,101280.31
2022-12-16T10:57:23.851Z,101293.50
2022-12-16T11:00:09.166Z,101304.69
2022-12-16T11:02:56.874Z,101295.59
2022-12-16T11:05:50.927Z,101316.69
2022-12-16T11:08:43.799Z,101351.81
2022-12-16T11:11:40.333Z,101336.25
2022-12-16T11:14:38.794Z,101309.88
2022-12-16T11:17:33.195Z,101305.72
2022-12-16T11:20:33.404Z,101321.56
2022-12-16T11:23:35.123Z,101350.75
2022-12-16T11:26:35.864Z,101318.66
2022-12-16T11:29:29.023Z,101319.16
2022-12-16T11:32:21.826Z,101320.25
2022-12-16T11:35:13.310Z,101309.50
2022-12-16T11:38:00.184Z,101328.06
2022-12-16T11:40:49.000Z,101401.59
2022-12-16T11:43:36.592Z,101429.47
2022-12-16T11:46:28.645Z,101423.97
2022-12-16T11:49:23.374Z,101406.66
2022-12-16T11:52:35.813Z,101418.56
2022-12-16T11:56:03.207Z,101462.81
2022-12-16T11:58:47.968Z,101481.88
2022-12-16T12:01:51.884Z,101504.16
2022-12-16T12:04:41.248Z,101505.00
2022-12-16T12:07:44.555Z,101511.56
2022-12-16T12:10:48.694Z,101521.16
2022-12-16T12:13:49.710Z,101507.63
2022-12-16T12:16:43.773Z,101518.25
2022-12-16T12:19:34.336Z,101510.75
2022-12-16T12:22:26.197Z,101521.81
2022-12-16T12:25:20.140Z,101517.50
2022-12-16T12:28:13.695Z,101538.13
2022-12-16T12:31:06.045Z,101525.91
2022-12-16T12:34:15.746Z,101528.56
2022-12-16T12:37:10.141Z,101532.16
2022-12-16T12:40:01.419Z,101524.41
2022-12-16T12:42:55.082Z,101524.44
2022-12-16T12:46:01.169Z,101534.94
2022-12-16T12:48:57.440Z,101537.16
2022-12-16T12:51:48.995Z,101545.66
2022-12-16T12:54:41.701Z,101550.59
2022-12-16T12:57:35.250Z,101539.63
2022-12-16T13:00:23.562Z,101552.22
2022-12-16T13:03:15.962Z,101544.91
2022-12-16T13:06:02.988Z,101551.56
2022-12-16T13:09:04.167Z,101552.25
2022-12-16T13:11:49.478Z,101534.50
2022-12-16T13:15:13.035Z,101526.50
2022-12-16T13:18:31.774Z,101508.41
2022-12-16T13:21:18.863Z,101513.25
2022-12-16T13:24:04.625Z,101497.97
2022-12-16T13:26:52.015Z,101485.22
2022-12-16T13:29:39.903Z,101492.16
2022-12-16T13:32:36.377Z,101520.31
2022-12-16T13:35:24.335Z,101525.06
2022-12-16T13:38:12.265Z,101515.78
2022-12-16T13:41:14.234Z,101534.09
2022-12-16T13:44:10.320Z,101555.84
2022-12-16T13:47:01.579Z,101554.97
2022-12-16T13:50:00.047Z,101560.38
2022-12-16T13:52:56.116Z,101556.41
2022-12-16T13:55:47.973Z,101558.09
2022-12-16T13:58:40.468Z,101560.72
2022-12-16T14:01:31.414Z,101557.91
2022-12-16T14:04:19.649Z,101568.06
2022-12-16T14:07:04.942Z,101558.91
2022-12-16T14:09:55.215Z,101553.31
2022-12-16T14:13:11.419Z,101551.78
2022-12-16T14:16:09.345Z,101548.84
2022-12-16T14:19:05.848Z,101541.56
2022-12-16T14:21:58.151Z,101526.25
2022-12-16T14:24:46.433Z,101507.00
2022-12-16T14:27:34.706Z,101514.66
2022-12-16T14:30:47.872Z,101513.53
2022-12-16T14:33:41.558Z,101483.22
2022-12-16T14:36:41.147Z,101460.72
2022-12-16T14:39:30.583Z,101453.25
2022-12-16T14:42:16.061Z,101444.72
2022-12-16T14:45:04.287Z,101437.22
2022-12-16T14:47:50.786Z,101442.50
2022-12-16T14:50:43.819Z,101427.28
2022-12-16T14:53:33.805Z,101423.44
2022-12-16T14:56:36.647Z,101445.06
2022-12-16T14:59:31.471Z,101445.78
2022-12-16T15:02:22.208Z,101469.66
2022-12-16T15:05:08.165Z,101453.53
2022-12-16T15:07:56.522Z,101451.53
2022-12-16T15:10:45.694Z,101488.84
2022-12-16T15:13:36.422Z,101488.72
2022-12-16T15:16:23.564Z,101486.00
2022-12-16T15:19:15.882Z,101467.78
2022-12-16T15:22:03.222Z,101447.75
2022-12-16T15:24:53.552Z,101381.28
2022-12-16T15:27:43.496Z,101353.56
2022-12-16T15:30:52.244Z,101347.75
2022-12-16T15:33:39.852Z,101358.22
2022-12-16T15:36:40.267Z,101363.28
2022-12-16T15:39:38.006Z,101364.63
2022-12-16T15:42:26.096Z,101361.53
2022-12-16T15:45:11.573Z,101355.09
2022-12-16T15:47:57.392Z,101376.16
2022-12-16T15:50:45.259Z,101394.81
2022-12-16T15:53:46.833Z,101389.25
2022-12-16T15:56:37.710Z,101392.44
2022-12-16T15:59:37.562Z,101408.13
2022-12-16T16:02:25.884Z,101430.19
2022-12-16T16:05:12.595Z,101418.84
2022-12-16T16:08:03.468Z,101423.34
2022-12-16T16:10:49.026Z,101398.09
2022-12-16T16:13:35.908Z,101391.41
2022-12-16T16:16:21.840Z,101400.56
2022-12-16T16:19:06.917Z,101403.03
2022-12-16T16:21:52.288Z,101400.50
2022-12-16T16:24:37.785Z,101397.56
2022-12-16T16:27:29.741Z,101405.69
2022-12-16T16:30:16.834Z,101406.59
2022-12-16T16:33:02.215Z,101419.31
2022-12-16T16:35:54.126Z,101407.94
2022-12-16T16:38:39.428Z,101405.22
2022-12-16T16:41:32.155Z,101407.47
2022-12-16T16:44:19.864Z,101408.47
2022-12-16T16:47:07.131Z,101420.34
2022-12-16T16:49:56.138Z,101426.69
2022-12-16T16:52:55.016Z,101425.13
2022-12-16T16:55:42.225Z,101433.78
2022-12-16T16:58:33.155Z,101429.53
2022-12-16T17:01:18.617Z,101433.34
2022-12-16T17:04:05.598Z,101427.50
2022-12-16T17:06:51.407Z,101438.78
2022-12-16T17:09:36.733Z,101447.97
2022-12-16T17:12:39.975Z,101453.28
2022-12-16T17:15:33.482Z,101448.31
2022-12-16T17:18:15.439Z,101457.63
2022-12-16T17:21:01.812Z,101458.97
2022-12-16T17:23:47.271Z,101471.44
2022-12-16T17:26:32.449Z,101475.84
2022-12-16T17:29:17.792Z,101484.03
2022-12-16T17:32:03.108Z,101501.09
2022-12-16T17:34:48.215Z,101480.47
2022-12-16T17:37:34.857Z,101498.69
2022-12-16T17:40:20.029Z,101515.81
2022-12-16T17:43:05.256Z,101538.56
2022-12-16T17:45:50.651Z,101563.00
2022-12-16T17:48:35.973Z,101573.06
2022-12-16T17:51:22.345Z,101557.56
2022-12-16T17:54:17.664Z,101535.53
2022-12-16T17:57:07.287Z,101553.56
2022-12-16T17:59:54.722Z,101582.00
2022-12-16T18:02:40.474Z,101623.53
2022-12-16T18:05:29.964Z,101622.41
2022-12-16T18:08:20.622Z,101598.63
2022-12-16T18:11:10.584Z,101626.56
2022-12-16T18:13:55.906Z,101631.28
2022-12-16T18:16:41.345Z,101631.34
2022-12-16T18:19:27.151Z,101643.50
2022-12-16T18:22:12.417Z,101646.72
2022-12-16T18:24:57.742Z,101647.59
2022-12-16T18:27:44.977Z,101629.72
2022-12-16T18:30:30.768Z,101638.94
2022-12-16T18:33:16.172Z,101607.09
2022-12-16T18:36:01.426Z,101590.31
2022-12-16T18:38:50.040Z,101587.56
2022-12-16T18:41:36.999Z,101591.72
2022-12-16T18:44:25.129Z,101600.16
2022-12-16T18:47:10.476Z,101624.53
2022-12-16T18:49:55.822Z,101647.31
2022-12-16T18:52:41.135Z,101627.75
2022-12-16T18:55:27.066Z,101619.44
2022-12-16T18:58:42.231Z,101610.16
2022-12-16T19:01:23.619Z,101607.84
2022-12-16T19:04:09.264Z,101629.91
2022-12-16T19:06:54.649Z,101631.78
2022-12-16T19:09:39.986Z,101631.56
2022-12-16T19:12:25.500Z,101625.00
2022-12-16T19:15:11.068Z,101612.59
2022-12-16T19:17:57.694Z,101611.56
2022-12-16T19:20:43.053Z,101604.31
2022-12-16T19:23:27.548Z,101604.72
2022-12-16T19:26:15.363Z,101618.13
2022-12-16T19:29:00.776Z,101612.63
2022-12-16T19:31:46.236Z,101616.13
2022-12-16T19:34:33.276Z,101610.34
2022-12-16T19:37:19.692Z,101602.25
2022-12-16T19:40:04.887Z,101621.09
2022-12-16T19:42:50.434Z,101638.19
2022-12-16T19:45:36.639Z,101656.47
2022-12-16T19:48:25.000Z,101665.31
2022-12-16T19:51:16.535Z,101657.00
2022-12-16T19:54:02.754Z,101651.22
2022-12-16T19:56:48.496Z,101651.09
2022-12-16T19:59:33.761Z,101656.47
2022-12-16T20:02:19.228Z,101668.28
2022-12-16T20:05:05.000Z,101684.13
2022-12-16T20:07:51.755Z,101689.59
2022-12-16T20:10:37.210Z,101703.88
2022-12-16T20:16:31.719Z,101730.69
2022-12-16T20:19:18.037Z,101728.94
2022-12-16T20:22:06.766Z,101724.91
2022-12-16T20:27:59.860Z,101702.28
2022-12-16T20:30:45.299Z,101741.72
2022-12-16T20:33:31.757Z,101766.78
2022-12-16T20:36:17.626Z,101787.28
2022-12-16T20:38:59.619Z,101799.06
2022-12-16T20:41:46.144Z,101800.25
2022-12-16T20:44:31.513Z,101793.81
2022-12-16T20:47:16.807Z,101807.16
2022-12-16T20:50:02.194Z,101811.91
2022-12-16T20:52:47.607Z,101835.00
2022-12-16T20:55:32.846Z,101848.38
2022-12-16T20:58:19.559Z,101832.00
2022-12-16T21:01:09.596Z,101833.19
2022-12-16T21:03:54.918Z,101821.88
2022-12-16T21:06:41.709Z,101834.34
2022-12-16T21:09:26.979Z,101880.34
2022-12-16T21:12:12.314Z,101872.59
2022-12-16T21:14:58.120Z,101876.03
2022-12-16T21:17:43.548Z,101887.09
2022-12-16T21:20:29.136Z,101892.56
2022-12-16T21:23:18.162Z,101925.75
2022-12-16T21:26:17.991Z,101901.06
2022-12-16T21:29:03.163Z,101905.41
2022-12-16T21:31:49.459Z,101922.47
2022-12-16T21:34:34.762Z,101897.03
2022-12-16T21:37:20.024Z,101906.03
2022-12-16T21:40:05.363Z,101904.78
2022-12-16T21:42:50.891Z,101922.63
2022-12-16T21:45:37.032Z,101933.16
2022-12-16T21:48:24.077Z,101943.56
2022-12-16T21:51:10.217Z,101942.59
2022-12-16T21:53:55.617Z,101930.13
2022-12-16T21:56:41.824Z,101910.56
2022-12-16T21:59:27.201Z,101899.28
2022-12-16T22:02:12.588Z,101907.06
2022-12-16T22:04:59.054Z,101902.44
2022-12-16T22:07:45.150Z,101919.00
2022-12-16T22:10:30.459Z,101937.16
2022-12-16T22:13:17.947Z,101936.41
2022-12-16T22:16:12.152Z,101908.41
2022-12-16T22:18:57.359Z,101879.28
2022-12-16T22:21:43.854Z,101865.75
2022-12-16T22:24:29.524Z,101890.28
2022-12-16T22:27:15.223Z,101884.41
2022-12-16T22:30:00.518Z,101878.47
2022-12-16T22:32:45.828Z,101879.28
2022-12-16T22:35:31.356Z,101876.00
2022-12-16T22:38:18.031Z,101878.56
2022-12-16T22:41:12.083Z,101876.91
2022-12-16T22:43:57.457Z,101883.91
2022-12-16T22:46:42.905Z,101861.50
2022-12-16T22:49:28.057Z,101842.59
2022-12-16T22:52:13.390Z,101850.44
2022-12-16T22:55:00.036Z,101844.31
2022-12-16T22:57:45.817Z,101827.09
2022-12-16T23:00:32.609Z,101830.56
2022-12-16T23:03:17.851Z,101831.47
2022-12-16T23:06:03.131Z,101827.72
2022-12-16T23:08:48.471Z,101849.16
2022-12-16T23:11:40.180Z,101864.72
2022-12-16T23:14:25.454Z,101863.75
2022-12-16T23:17:10.681Z,101872.59
2022-12-16T23:19:56.666Z,101856.16
2022-12-16T23:22:41.668Z,101868.34
2022-12-16T23:25:29.389Z,101869.06
2022-12-16T23:28:16.054Z,101869.97
2022-12-16T23:31:01.364Z,101883.81
2022-12-16T23:33:46.648Z,101866.53
2022-12-16T23:36:31.866Z,101864.03
2022-12-16T23:39:17.154Z,101866.50
2022-12-16T23:42:02.394Z,101872.75
2022-12-16T23:44:56.236Z,101871.03
2022-12-16T23:47:53.209Z,101861.44
2022-12-16T23:50:41.607Z,101878.78
2022-12-16T23:53:28.854Z,101886.22
2022-12-16T23:56:14.643Z,101916.38
2022-12-16T23:58:59.915Z,101918.13
